Time;durP1;ratioP1;P1;durP2;ratioP2;P2;SDS_P1;SDS_P2;PMS_P1;PMS_P2;Temp;Humidity;BMP_temperature;BMP_pressure;BME280_temperature;BME280_humidity;BME280_pressure;Samples;Min_cycle;Max_cycle;Signal;HPM_P1;HPM_P2
2022/06/05 00:00:29;;;;;;;;;;;;;;;14.93;75.63;101722.88;4959229;29;19946;-35
2022/06/05 00:03:01;;;;;;;;;;;;;;;14.93;75.63;101713.91;4958795;29;19918;-34
2022/06/05 00:05:28;;;;;;;;;;;;;;;14.91;75.51;101718.66;4958844;29;19915;-33
2022/06/05 00:08:13;;;;;;;;;;;;;;;14.86;75.67;101724.66;4941506;29;19970;-33
2022/06/05 00:10:39;;;;;;;;;;;;;;;14.85;75.56;101731.13;4941729;29;19921;-33
2022/06/05 00:13:19;;;;;;;;;;;;;;;14.87;75.86;101717.34;4941998;29;20372;-34
2022/06/05 00:15:45;;;;;;;;;;;;;;;14.83;75.81;101727.75;4942331;29;19922;-34
2022/06/05 00:18:11;;;;;;;;;;;;;;;14.82;76.02;101711.66;4963176;29;20216;-33
2022/06/05 00:20:36;;;;;;;;;;;;;;;14.80;76.03;101716.44;4963397;29;20208;-32
2022/06/05 00:23:02;;;;;;;;;;;;;;;14.75;76.04;101708.88;4961642;29;19942;-33
2022/06/05 00:25:31;;;;;;;;;;;;;;;14.77;76.21;101711.38;4962431;29;19921;-33
2022/06/05 00:27:59;;;;;;;;;;;;;;;14.74;76.03;101707.19;4944598;29;20274;-33
2022/06/05 00:30:44;;;;;;;;;;;;;;;14.76;76.15;101704.28;4944550;29;19914;-34
2022/06/05 00:33:10;;;;;;;;;;;;;;;14.75;75.97;101698.03;4961676;29;19929;-33
2022/06/05 00:35:44;;;;;;;;;;;;;;;14.74;75.98;101700.94;4944392;29;19918;-33
2022/06/05 00:38:12;;;;;;;;;;;;;;;14.77;75.89;101708.66;4944895;29;20243;-36
2022/06/05 00:40:57;;;;;;;;;;;;;;;14.74;75.90;101699.06;4961648;29;20334;-33
2022/06/05 00:43:22;;;;;;;;;;;;;;;14.71;76.09;101692.13;4944933;29;19924;-33
2022/06/05 00:45:48;;;;;;;;;;;;;;;14.70;75.99;101686.94;4961565;29;19914;-33
2022/06/05 00:48:13;;;;;;;;;;;;;;;14.67;75.97;101688.13;4962546;29;20378;-33
2022/06/05 00:50:40;;;;;;;;;;;;;;;14.65;76.08;101687.47;4962274;29;19961;-32
2022/06/05 00:53:06;;;;;;;;;;;;;;;14.62;76.08;101684.31;4962158;29;20433;-33
2022/06/05 00:55:35;;;;;;;;;;;;;;;14.61;76.15;101685.34;4961441;29;19915;-33
2022/06/05 00:58:00;;;;;;;;;;;;;;;14.61;75.97;101693.47;4944491;29;19954;-33
2022/06/05 01:00:28;;;;;;;;;;;;;;;14.56;76.02;101694.03;4960736;29;19915;-33
2022/06/05 01:02:54;;;;;;;;;;;;;;;14.59;76.05;101709.09;4961217;29;19914;-34
2022/06/05 01:05:20;;;;;;;;;;;;;;;14.57;75.97;101711.97;4943849;29;19914;-33
2022/06/05 01:07:45;;;;;;;;;;;;;;;14.58;75.93;101710.94;4944316;29;19914;-33
2022/06/05 01:10:11;;;;;;;;;;;;;;;14.60;76.05;101705.34;4961315;29;19938;-33
2022/06/05 01:12:50;;;;;;;;;;;;;;;14.60;75.84;101700.75;4943328;29;19981;-33
2022/06/05 01:15:34;;;;;;;;;;;;;;;14.58;76.10;101718.22;4944037;29;19950;-33
2022/06/05 01:18:05;;;;;;;;;;;;;;;14.58;75.80;101729.88;4961614;29;19921;-33
2022/06/05 01:20:34;;;;;;;;;;;;;;;14.58;75.89;101740.72;4960275;29;20293;-33
2022/06/05 01:23:02;;;;;;;;;;;;;;;14.47;77.62;101809.72;4961228;29;19946;-32
2022/06/05 01:25:36;;;;;;;;;;;;;;;14.10;83.80;101801.59;4960497;29;20436;-45
2022/06/05 01:28:06;;;;;;;;;;;;;;;13.96;85.88;101757.22;4941138;29;20018;-44
2022/06/05 01:30:33;;;;;;;;;;;;;;;13.78;87.16;101790.00;4938309;29;19921;-33
2022/06/05 01:33:01;;;;;;;;;;;;;;;13.64;88.63;101802.44;4955037;29;20362;-33
2022/06/05 01:35:45;;;;;;;;;;;;;;;13.61;90.00;101754.09;4939277;29;19973;-45
2022/06/05 01:38:14;;;;;;;;;;;;;;;13.53;90.40;101792.00;4956031;29;19928;-33
2022/06/05 01:40:45;;;;;;;;;;;;;;;13.50;91.61;101784.25;4938095;29;19907;-32
2022/06/05 01:43:11;;;;;;;;;;;;;;;13.56;92.29;101760.06;4959748;29;19957;-33
2022/06/05 01:45:36;;;;;;;;;;;;;;;13.55;89.83;101765.63;4958707;29;19912;-32
2022/06/05 01:48:02;;;;;;;;;;;;;;;13.60;88.38;101772.19;4939823;29;19914;-33
2022/06/05 01:50:37;;;;;;;;;;;;;;;13.63;88.45;101757.47;4942235;29;20338;-33
2022/06/05 01:53:08;;;;;;;;;;;;;;;13.65;88.18;101755.41;4942907;29;19918;-32
2022/06/05 01:55:38;;;;;;;;;;;;;;;13.66;87.79;101750.84;4942695;29;19914;-32
2022/06/05 01:58:04;;;;;;;;;;;;;;;13.69;88.13;101751.34;4941637;29;19918;-33
2022/06/05 02:00:29;;;;;;;;;;;;;;;13.70;87.69;101734.09;4940585;29;20390;-32
2022/06/05 02:03:04;;;;;;;;;;;;;;;13.72;87.33;101732.03;4941523;29;19969;-32
2022/06/05 02:05:37;;;;;;;;;;;;;;;13.75;87.30;101728.97;4959204;29;20286;-32
2022/06/05 02:08:07;;;;;;;;;;;;;;;13.77;87.02;101716.13;4957987;29;19942;-33
2022/06/05 02:10:36;;;;;;;;;;;;;;;13.76;87.13;101711.69;4939507;29;19918;-32
2022/06/05 02:13:02;;;;;;;;;;;;;;;13.71;87.60;101710.56;4957610;29;20362;-31
2022/06/05 02:15:28;;;;;;;;;;;;;;;13.68;88.06;101700.94;4939671;29;19921;-32
2022/06/05 02:17:55;;;;;;;;;;;;;;;13.62;87.94;101707.09;4943503;29;19919;-34
2022/06/05 02:20:20;;;;;;;;;;;;;;;13.62;88.38;101701.69;4961170;29;19956;-34
2022/06/05 02:22:46;;;;;;;;;;;;;;;13.61;88.69;101700.00;4945818;29;20278;-34
2022/06/05 02:25:11;;;;;;;;;;;;;;;13.58;89.04;101697.66;4946924;29;19914;-35
2022/06/05 02:27:37;;;;;;;;;;;;;;;13.56;89.35;101683.47;4955981;29;20029;-34
2022/06/05 02:30:02;;;;;;;;;;;;;;;13.53;90.02;101691.94;4954171;29;20022;-33
2022/06/05 02:32:31;;;;;;;;;;;;;;;13.51;90.26;101677.78;4954755;29;20004;-42
2022/06/05 02:35:00;;;;;;;;;;;;;;;13.48;91.10;101675.41;4954518;28;19918;-44
2022/06/05 02:37:44;;;;;;;;;;;;;;;13.43;91.38;101661.59;4936550;28;19973;-44
2022/06/05 02:40:25;;;;;;;;;;;;;;;13.35;91.96;101652.53;4953619;29;20346;-41
2022/06/05 02:42:54;;;;;;;;;;;;;;;13.30;92.46;101636.00;4936768;29;19948;-39
2022/06/05 02:45:19;;;;;;;;;;;;;;;13.23;92.72;101637.72;4936636;29;19973;-35
2022/06/05 02:47:48;;;;;;;;;;;;;;;13.21;93.31;101628.09;4953884;29;20285;-36
2022/06/05 02:50:17;;;;;;;;;;;;;;;13.16;93.59;101615.13;4953902;29;19970;-37
2022/06/05 02:52:42;;;;;;;;;;;;;;;13.15;94.21;101608.06;4953731;29;19915;-42
2022/06/05 02:55:12;;;;;;;;;;;;;;;13.12;94.61;101595.72;4953740;29;20054;-40
2022/06/05 02:57:37;;;;;;;;;;;;;;;13.10;95.28;101594.22;4946129;29;20379;-41
2022/06/05 03:00:04;;;;;;;;;;;;;;;13.04;95.05;101585.00;4936357;29;20053;-43
2022/06/05 03:05:13;;;;;;;;;;;;;;;13.01;95.91;101574.53;4953944;29;19930;-43
2022/06/05 03:07:38;;;;;;;;;;;;;;;12.96;95.99;101566.97;4953155;29;19922;-45
2022/06/05 03:10:03;;;;;;;;;;;;;;;12.92;96.41;101554.81;4953606;29;19991;-35
2022/06/05 03:12:29;;;;;;;;;;;;;;;12.94;96.78;101542.00;4953613;29;19914;-36
2022/06/05 03:14:56;;;;;;;;;;;;;;;12.92;96.78;101527.81;4953199;29;19941;-33
2022/06/05 03:17:22;;;;;;;;;;;;;;;12.93;97.50;101524.09;4953093;29;19918;-35
2022/06/05 03:19:47;;;;;;;;;;;;;;;12.89;97.67;101522.78;4954569;29;19914;-34
2022/06/05 03:22:12;;;;;;;;;;;;;;;12.85;97.65;101521.47;4954278;29;20385;-32
2022/06/05 03:24:37;;;;;;;;;;;;;;;12.80;97.77;101512.22;4960204;29;19918;-35
2022/06/05 03:27:03;;;;;;;;;;;;;;;12.75;97.76;101510.06;4963823;29;19914;-34
2022/06/05 03:29:28;;;;;;;;;;;;;;;12.74;97.83;101502.97;4965959;29;19996;-36
2022/06/05 03:31:53;;;;;;;;;;;;;;;12.71;97.98;101503.31;4963602;29;19914;-34
2022/06/05 03:34:18;;;;;;;;;;;;;;;12.65;97.97;101509.47;4965370;28;19919;-34
2022/06/05 03:36:46;;;;;;;;;;;;;;;12.65;98.05;101482.44;4961731;29;19946;-35
2022/06/05 03:39:11;;;;;;;;;;;;;;;12.63;98.11;101490.72;4960492;29;19921;-35
2022/06/05 03:41:36;;;;;;;;;;;;;;;12.62;98.19;101482.81;4943694;29;19910;-32
2022/06/05 03:44:01;;;;;;;;;;;;;;;12.60;98.52;101492.94;4960429;29;20009;-32
2022/06/05 03:46:28;;;;;;;;;;;;;;;12.63;98.58;101473.69;4960057;29;19957;-36
2022/06/05 03:48:53;;;;;;;;;;;;;;;12.62;98.36;101463.91;4961564;29;20289;-32
2022/06/05 03:51:20;;;;;;;;;;;;;;;12.60;98.18;101463.25;4961744;29;19949;-35
2022/06/05 03:53:45;;;;;;;;;;;;;;;12.56;97.98;101456.50;4962640;29;20382;-33
2022/06/05 03:56:12;;;;;;;;;;;;;;;12.55;97.72;101457.53;4961097;29;19926;-34
2022/06/05 03:58:37;;;;;;;;;;;;;;;12.54;97.82;101453.16;4962341;29;19914;-33
2022/06/05 04:01:02;;;;;;;;;;;;;;;12.55;98.04;101454.84;4945417;29;19921;-34
2022/06/05 04:03:28;;;;;;;;;;;;;;;12.53;97.56;101465.81;4962422;29;19911;-35
2022/06/05 04:05:53;;;;;;;;;;;;;;;12.54;97.12;101472.06;4961955;29;19918;-32
2022/06/05 04:08:18;;;;;;;;;;;;;;;12.51;96.66;101476.81;4961531;29;19914;-33
2022/06/05 04:10:43;;;;;;;;;;;;;;;12.48;96.36;101460.97;4961376;29;20024;-33
2022/06/05 04:13:09;;;;;;;;;;;;;;;12.48;96.45;101471.78;4944585;29;19968;-33
2022/06/05 04:15:40;;;;;;;;;;;;;;;12.50;95.96;101475.09;4961241;29;20048;-33
2022/06/05 04:18:06;;;;;;;;;;;;;;;12.51;96.15;101471.41;4961767;29;20333;-34
2022/06/05 04:20:32;;;;;;;;;;;;;;;12.49;96.44;101462.63;4962300;29;19915;-33
2022/06/05 04:22:58;;;;;;;;;;;;;;;12.50;96.34;101467.00;4946566;29;19941;-33
2022/06/05 04:25:23;;;;;;;;;;;;;;;12.51;96.45;101474.09;4945821;29;19922;-34
2022/06/05 04:27:48;;;;;;;;;;;;;;;12.50;96.04;101471.56;4963034;29;20012;-34
2022/06/05 04:30:13;;;;;;;;;;;;;;;12.54;96.11;101464.81;4964373;29;19930;-38
2022/06/05 04:32:39;;;;;;;;;;;;;;;12.52;96.42;101458.75;4964017;29;19993;-33
2022/06/05 04:35:04;;;;;;;;;;;;;;;12.47;96.06;101456.56;4960002;28;19953;-35
2022/06/05 04:37:30;;;;;;;;;;;;;;;12.40;95.87;101460.16;4960554;29;19918;-33
2022/06/05 04:39:55;;;;;;;;;;;;;;;12.42;96.16;101469.75;4958977;29;19918;-32
2022/06/05 04:42:20;;;;;;;;;;;;;;;12.38;95.90;101459.53;4959468;29;19926;-34
2022/06/05 04:44:45;;;;;;;;;;;;;;;12.39;96.17;101462.03;4960115;29;19915;-32
2022/06/05 04:47:11;;;;;;;;;;;;;;;12.35;96.34;101455.31;4943407;29;19914;-33
2022/06/05 04:49:36;;;;;;;;;;;;;;;12.35;96.48;101449.94;4964964;29;19949;-34
2022/06/05 04:52:01;;;;;;;;;;;;;;;12.39;96.98;101453.09;4964773;29;19914;-34
2022/06/05 04:54:27;;;;;;;;;;;;;;;12.36;96.62;101446.19;4963625;29;19919;-34
2022/06/05 04:56:52;;;;;;;;;;;;;;;12.39;96.40;101436.91;4963982;29;20313;-34
2022/06/05 04:59:18;;;;;;;;;;;;;;;12.37;95.94;101450.56;4965055;29;19969;-33
2022/06/05 05:01:43;;;;;;;;;;;;;;;12.38;96.49;101454.97;4965495;28;19918;-32
2022/06/05 05:04:10;;;;;;;;;;;;;;;12.39;96.48;101451.22;4964549;29;19918;-35
2022/06/05 05:06:35;;;;;;;;;;;;;;;12.40;96.42;101449.38;4963782;29;19922;-32
2022/06/05 05:09:01;;;;;;;;;;;;;;;12.40;96.43;101442.13;4963016;29;19922;-31
2022/06/05 05:11:26;;;;;;;;;;;;;;;12.40;96.43;101441.25;4963537;29;19918;-33
2022/06/05 05:13:55;;;;;;;;;;;;;;;12.41;96.72;101429.47;4963219;28;19978;-31
2022/06/05 05:16:20;;;;;;;;;;;;;;;12.38;97.20;101436.06;4962308;29;19922;-45
2022/06/05 05:18:46;;;;;;;;;;;;;;;12.32;97.92;101428.66;4940121;29;20049;-44
2022/06/05 05:21:13;;;;;;;;;;;;;;;12.27;98.42;101431.09;4954275;29;20356;-39
2022/06/05 05:23:39;;;;;;;;;;;;;;;12.20;98.90;101438.22;4956479;29;19950;-42
2022/06/05 05:26:05;;;;;;;;;;;;;;;12.15;99.94;101444.13;4961265;29;19922;-44
2022/06/05 05:28:31;;;;;;;;;;;;;;;12.11;100.00;101447.34;4959843;29;20376;-43
2022/06/05 05:30:56;;;;;;;;;;;;;;;12.01;100.00;101440.34;4956300;29;19965;-45
2022/06/05 05:33:21;;;;;;;;;;;;;;;12.01;100.00;101436.81;4953152;29;19961;-35
2022/06/05 05:35:46;;;;;;;;;;;;;;;12.03;100.00;101434.75;4950767;28;19965;-36
2022/06/05 05:38:11;;;;;;;;;;;;;;;12.01;100.00;101420.63;4964502;29;19922;-37
2022/06/05 05:43:21;;;;;;;;;;;;;;;12.01;100.00;101418.75;4957676;29;20053;-33
2022/06/05 05:45:46;;;;;;;;;;;;;;;12.02;100.00;101423.13;4958968;29;20365;-35
2022/06/05 05:48:11;;;;;;;;;;;;;;;12.04;100.00;101434.59;4958381;29;19946;-35
2022/06/05 05:50:37;;;;;;;;;;;;;;;12.05;100.00;101422.75;4956625;29;19953;-33
2022/06/05 05:53:02;;;;;;;;;;;;;;;12.08;100.00;101416.16;4956436;29;19914;-32
2022/06/05 05:55:27;;;;;;;;;;;;;;;12.08;100.00;101421.56;4956894;29;20025;-33
2022/06/05 05:57:52;;;;;;;;;;;;;;;12.13;100.00;101432.66;4956458;29;19922;-33
2022/06/05 06:00:19;;;;;;;;;;;;;;;12.17;100.00;101430.47;4957004;29;20213;-32
2022/06/05 06:02:44;;;;;;;;;;;;;;;12.21;100.00;101419.13;4939681;29;19949;-33
2022/06/05 06:05:11;;;;;;;;;;;;;;;12.22;100.00;101428.09;4956340;29;20155;-35
2022/06/05 06:07:37;;;;;;;;;;;;;;;12.24;100.00;101428.72;4939997;29;19922;-33
2022/06/05 06:10:02;;;;;;;;;;;;;;;12.25;100.00;101433.13;4958521;29;19919;-32
2022/06/05 06:12:27;;;;;;;;;;;;;;;12.30;100.00;101436.13;4958381;28;19922;-34
2022/06/05 06:14:53;;;;;;;;;;;;;;;12.35;100.00;101422.94;4958924;29;19961;-34
2022/06/05 06:17:18;;;;;;;;;;;;;;;12.39;100.00;101428.81;4959713;29;19922;-33
2022/06/05 06:19:43;;;;;;;;;;;;;;;12.43;100.00;101425.56;4959762;29;19914;-32
2022/06/05 06:22:09;;;;;;;;;;;;;;;12.45;100.00;101428.94;4959640;29;19993;-32
2022/06/05 06:24:34;;;;;;;;;;;;;;;12.47;100.00;101431.44;4959207;29;19915;-31
2022/06/05 06:26:59;;;;;;;;;;;;;;;12.52;100.00;101446.06;4958770;29;19922;-31
2022/06/05 06:29:24;;;;;;;;;;;;;;;12.55;100.00;101444.88;4941238;29;19934;-32
2022/06/05 06:31:50;;;;;;;;;;;;;;;12.63;100.00;101441.28;4958275;29;19929;-34
2022/06/05 06:34:15;;;;;;;;;;;;;;;12.66;100.00;101446.31;4959725;28;19978;-33
2022/06/05 06:36:40;;;;;;;;;;;;;;;12.67;100.00;101442.59;4960005;28;20032;-33
2022/06/05 06:39:06;;;;;;;;;;;;;;;12.72;100.00;101446.44;4961189;29;19918;-33
2022/06/05 06:41:31;;;;;;;;;;;;;;;12.71;100.00;101439.34;4962290;29;20281;-33
2022/06/05 06:43:56;;;;;;;;;;;;;;;12.73;100.00;101441.88;4961491;29;19918;-33
2022/06/05 06:46:21;;;;;;;;;;;;;;;12.77;100.00;101443.19;4961358;29;20263;-33
2022/06/05 06:48:47;;;;;;;;;;;;;;;12.81;100.00;101441.81;4962804;29;20405;-33
2022/06/05 06:51:12;;;;;;;;;;;;;;;12.83;100.00;101438.94;4962877;29;19998;-34
2022/06/05 06:53:38;;;;;;;;;;;;;;;12.82;100.00;101430.00;4945343;29;19927;-32
2022/06/05 06:56:13;;;;;;;;;;;;;;;12.86;100.00;101431.28;4958008;29;19926;-35
2022/06/05 06:58:39;;;;;;;;;;;;;;;12.86;100.00;101422.34;4951820;29;20309;-33
2022/06/05 07:01:04;;;;;;;;;;;;;;;12.86;100.00;101415.09;4956474;29;20009;-31
2022/06/05 07:03:30;;;;;;;;;;;;;;;12.88;100.00;101433.81;4937637;29;19922;-32
2022/06/05 07:05:55;;;;;;;;;;;;;;;12.89;100.00;101409.31;4955860;29;20392;-32
2022/06/05 07:08:21;;;;;;;;;;;;;;;12.90;100.00;101411.00;4954352;29;19922;-32
2022/06/05 07:10:46;;;;;;;;;;;;;;;12.92;100.00;101408.94;4955003;29;19921;-34
2022/06/05 07:13:11;;;;;;;;;;;;;;;12.93;99.84;101397.13;4954345;29;19918;-35
2022/06/05 07:15:38;;;;;;;;;;;;;;;12.95;99.21;101386.97;4956566;29;19921;-34
2022/06/05 07:18:03;;;;;;;;;;;;;;;12.99;99.09;101384.75;4939483;29;20009;-35
2022/06/05 07:20:31;;;;;;;;;;;;;;;13.04;99.17;101384.19;4957395;29;19970;-34
2022/06/05 07:22:56;;;;;;;;;;;;;;;13.11;99.03;101379.69;4957657;29;20409;-35
2022/06/05 07:25:21;;;;;;;;;;;;;;;13.19;99.03;101382.31;4956958;28;19925;-36
2022/06/05 07:27:46;;;;;;;;;;;;;;;13.27;98.93;101370.59;4957927;29;20221;-34
2022/06/05 07:30:12;;;;;;;;;;;;;;;13.41;98.87;101375.19;4959270;29;20025;-36
2022/06/05 07:32:38;;;;;;;;;;;;;;;13.45;98.05;101375.63;4958952;29;19918;-35
2022/06/05 07:35:03;;;;;;;;;;;;;;;13.59;97.55;101366.69;4959172;28;19933;-33
2022/06/05 07:37:28;;;;;;;;;;;;;;;13.76;97.30;101362.72;4959639;29;20385;-33
2022/06/05 07:39:53;;;;;;;;;;;;;;;13.89;96.38;101361.19;4942710;29;19982;-34
2022/06/05 07:42:19;;;;;;;;;;;;;;;14.07;96.22;101356.19;4960389;29;20370;-35
2022/06/05 07:44:44;;;;;;;;;;;;;;;14.21;96.21;101349.88;4960758;29;20379;-36
2022/06/05 07:47:09;;;;;;;;;;;;;;;14.34;95.49;101356.44;4961242;29;19929;-34
2022/06/05 07:49:37;;;;;;;;;;;;;;;14.49;95.10;101351.81;4960939;29;20013;-34
2022/06/05 07:54:47;;;;;;;;;;;;;;;14.87;93.53;101346.06;4954908;29;19930;-35
2022/06/05 07:57:13;;;;;;;;;;;;;;;15.00;92.47;101353.44;4944027;29;19914;-36
2022/06/05 07:59:39;;;;;;;;;;;;;;;15.27;91.74;101349.00;4961086;29;20003;-35
2022/06/05 08:02:06;;;;;;;;;;;;;;;15.51;90.79;101340.38;4944256;29;19919;-37
2022/06/05 08:04:31;;;;;;;;;;;;;;;15.71;89.69;101345.06;4961566;29;19918;-35
2022/06/05 08:06:57;;;;;;;;;;;;;;;15.81;86.31;101334.66;4961869;29;20077;-35
2022/06/05 08:09:23;;;;;;;;;;;;;;;16.06;87.12;101332.25;4961251;29;19919;-34
2022/06/05 08:11:48;;;;;;;;;;;;;;;16.33;87.31;101330.38;4961585;29;19922;-37
2022/06/05 08:14:14;;;;;;;;;;;;;;;16.52;86.06;101328.72;4961426;29;19977;-34
2022/06/05 08:16:43;;;;;;;;;;;;;;;16.60;84.33;101316.78;4962894;29;19914;-37
2022/06/05 08:19:08;;;;;;;;;;;;;;;16.61;83.66;101323.88;4945772;29;19925;-34
2022/06/05 08:21:33;;;;;;;;;;;;;;;16.52;82.72;101328.72;4962041;29;19915;-34
2022/06/05 08:23:59;;;;;;;;;;;;;;;16.40;83.20;101320.38;4962963;29;19914;-34
2022/06/05 08:26:24;;;;;;;;;;;;;;;16.29;82.92;101315.53;4963431;29;19915;-37
2022/06/05 08:28:50;;;;;;;;;;;;;;;16.26;83.88;101321.38;4962200;29;19953;-36
2022/06/05 08:31:15;;;;;;;;;;;;;;;16.33;83.82;101333.09;4944745;29;19925;-36
2022/06/05 08:33:41;;;;;;;;;;;;;;;16.43;83.08;101327.25;4962103;29;19914;-34
2022/06/05 08:36:06;;;;;;;;;;;;;;;16.58;82.28;101340.63;4944610;29;19927;-35
2022/06/05 08:41:27;;;;;;;;;;;;;;;16.95;83.06;101354.63;4966407;29;19922;-35
2022/06/05 08:44:08;;;;;;;;;;;;;;;17.01;81.84;101367.38;4966380;29;19925;-33
2022/06/05 08:46:38;;;;;;;;;;;;;;;16.80;79.68;101374.72;4966295;29;19914;-34
2022/06/05 08:49:06;;;;;;;;;;;;;;;16.77;80.00;101372.44;4948615;29;19957;-32
2022/06/05 08:51:45;;;;;;;;;;;;;;;17.15;80.49;101379.91;4948845;29;20337;-33
2022/06/05 08:54:16;;;;;;;;;;;;;;;17.61;80.23;101373.47;4948745;29;19911;-33
2022/06/05 08:56:45;;;;;;;;;;;;;;;17.74;79.39;101369.84;4948459;29;20366;-35
2022/06/05 08:59:13;;;;;;;;;;;;;;;17.95;78.57;101372.28;4965646;29;19918;-33
2022/06/05 09:01:40;;;;;;;;;;;;;;;18.23;79.49;101381.16;4948075;29;20390;-34
2022/06/05 09:04:23;;;;;;;;;;;;;;;18.44;77.91;101369.91;4965338;29;20227;-33
2022/06/05 09:06:50;;;;;;;;;;;;;;;18.77;76.90;101357.91;4964472;29;19915;-33
2022/06/05 09:09:21;;;;;;;;;;;;;;;19.01;75.37;101369.84;4946923;29;19969;-34
2022/06/05 09:11:58;;;;;;;;;;;;;;;19.46;74.58;101372.31;4931417;29;19910;-36
2022/06/05 09:14:40;;;;;;;;;;;;;;;19.64;72.21;101363.25;4964523;29;19914;-33
2022/06/05 09:17:09;;;;;;;;;;;;;;;20.07;70.98;101356.84;4946772;29;20396;-35
2022/06/05 09:19:34;;;;;;;;;;;;;;;20.43;71.33;101368.69;4946823;29;19949;-35
2022/06/05 09:22:04;;;;;;;;;;;;;;;21.14;71.59;101369.59;4947636;29;20369;-35
2022/06/05 09:24:38;;;;;;;;;;;;;;;21.81;66.20;101369.13;4964380;29;19925;-33
2022/06/05 09:27:18;;;;;;;;;;;;;;;22.35;65.02;101350.38;4947223;29;19966;-33
2022/06/05 09:29:51;;;;;;;;;;;;;;;23.44;59.73;101358.09;4963993;29;20429;-35
2022/06/05 09:32:33;;;;;;;;;;;;;;;23.66;60.17;101362.75;4946927;29;20334;-35
2022/06/05 09:35:02;;;;;;;;;;;;;;;24.27;56.50;101357.91;4946534;29;19918;-33
2022/06/05 09:37:27;;;;;;;;;;;;;;;23.82;57.45;101350.84;4946541;29;19977;-36
2022/06/05 09:39:54;;;;;;;;;;;;;;;23.62;56.30;101345.13;4962610;29;20012;-34
2022/06/05 09:42:32;;;;;;;;;;;;;;;23.85;55.39;101328.34;4946142;29;19917;-35
2022/06/05 09:45:15;;;;;;;;;;;;;;;23.58;56.95;101332.97;4962360;29;19918;-33
2022/06/05 09:47:44;;;;;;;;;;;;;;;22.75;60.62;101352.97;4943742;29;19969;-34
2022/06/05 09:50:28;;;;;;;;;;;;;;;22.45;58.96;101341.50;4944469;29;19953;-35
2022/06/05 09:52:53;;;;;;;;;;;;;;;22.65;58.18;101333.63;4961357;29;19922;-34
2022/06/05 09:55:19;;;;;;;;;;;;;;;22.24;58.98;101334.84;4960524;29;19914;-33
2022/06/05 10:00:47;;;;;;;;;;;;;;;21.70;61.23;101336.03;4960782;29;19941;-34
2022/06/05 10:03:15;;;;;;;;;;;;;;;21.24;61.53;101332.31;4960366;29;19919;-34
2022/06/05 10:05:44;;;;;;;;;;;;;;;20.69;65.87;101329.16;4943122;29;19920;-33
2022/06/05 10:08:20;;;;;;;;;;;;;;;20.55;66.69;101328.56;4942666;29;19922;-35
2022/06/05 10:10:46;;;;;;;;;;;;;;;20.57;66.05;101316.31;4944088;29;19938;-33
2022/06/05 10:13:11;;;;;;;;;;;;;;;20.66;65.33;101315.97;4942448;29;19925;-34
2022/06/05 10:15:48;;;;;;;;;;;;;;;20.70;64.85;101315.25;4960888;29;19922;-36
2022/06/05 10:18:20;;;;;;;;;;;;;;;20.61;64.68;101306.53;4942722;29;19918;-37
2022/06/05 10:20:56;;;;;;;;;;;;;;;20.49;64.48;101300.22;4960529;29;19965;-34
2022/06/05 10:23:41;;;;;;;;;;;;;;;20.35;65.39;101304.25;4943417;29;19914;-33
2022/06/05 10:26:23;;;;;;;;;;;;;;;20.56;65.75;101298.25;4943426;29;19966;-34
2022/06/05 10:28:50;;;;;;;;;;;;;;;20.97;64.72;101301.06;4927590;29;19918;-34
2022/06/05 10:31:21;;;;;;;;;;;;;;;21.36;62.31;101295.88;4960385;29;19918;-34
2022/06/05 10:33:48;;;;;;;;;;;;;;;21.46;61.17;101286.00;4960533;29;19915;-34
2022/06/05 10:36:14;;;;;;;;;;;;;;;21.52;61.50;101284.19;4959314;28;20369;-34
2022/06/05 10:38:42;;;;;;;;;;;;;;;21.55;61.36;101283.69;4960040;29;19918;-35
2022/06/05 10:41:26;;;;;;;;;;;;;;;21.59;60.57;101279.41;4960570;29;20235;-34
2022/06/05 10:44:03;;;;;;;;;;;;;;;21.79;62.42;101280.84;4961000;29;19914;-34
2022/06/05 10:46:28;;;;;;;;;;;;;;;22.51;58.40;101271.94;4943115;29;19969;-36
2022/06/05 10:49:02;;;;;;;;;;;;;;;22.63;58.21;101280.91;4959900;29;19922;-34
2022/06/05 10:51:32;;;;;;;;;;;;;;;22.56;57.89;101274.75;4961164;29;19917;-36
2022/06/05 10:54:19;;;;;;;;;;;;;;;22.30;58.94;101263.41;4943260;29;20377;-34
2022/06/05 10:56:58;;;;;;;;;;;;;;;22.31;58.86;101256.81;4942510;29;19961;-35
2022/06/05 10:59:29;;;;;;;;;;;;;;;22.16;60.85;101256.53;4942247;29;20009;-35
2022/06/05 11:01:55;;;;;;;;;;;;;;;21.91;60.10;101262.44;4959824;29;19918;-35
2022/06/05 11:04:25;;;;;;;;;;;;;;;21.83;59.93;101257.38;4959877;29;19914;-33
2022/06/05 11:07:09;;;;;;;;;;;;;;;21.78;61.71;101254.53;4941659;29;19921;-34
2022/06/05 11:09:48;;;;;;;;;;;;;;;21.68;61.80;101261.47;4959511;29;19925;-33
2022/06/05 11:15:22;;;;;;;;;;;;;;;21.79;62.00;101256.19;4959105;29;19941;-34
2022/06/05 11:18:06;;;;;;;;;;;;;;;21.74;62.39;101258.84;4959254;29;19911;-34
2022/06/05 11:20:31;;;;;;;;;;;;;;;21.56;61.82;101252.47;4959635;29;19914;-33
2022/06/05 11:23:07;;;;;;;;;;;;;;;21.32;62.95;101250.88;4958955;29;20263;-32
2022/06/05 11:25:33;;;;;;;;;;;;;;;21.00;63.90;101254.06;4940980;29;19965;-34
2022/06/05 11:28:17;;;;;;;;;;;;;;;20.94;64.40;101253.13;4941911;29;20024;-35
2022/06/05 11:30:47;;;;;;;;;;;;;;;20.77;64.99;101239.38;4957798;29;19915;-34
2022/06/05 11:33:23;;;;;;;;;;;;;;;20.69;65.48;101234.25;4941230;29;19921;-34
2022/06/05 11:35:57;;;;;;;;;;;;;;;20.54;65.90;101234.75;4941499;29;19973;-32
2022/06/05 11:38:25;;;;;;;;;;;;;;;20.38;65.82;101232.72;4958631;29;19985;-35
2022/06/05 11:41:04;;;;;;;;;;;;;;;20.19;66.70;101231.97;4958384;29;20000;-35
2022/06/05 11:43:33;;;;;;;;;;;;;;;20.16;67.42;101229.72;4940818;29;20345;-36
2022/06/05 11:46:05;;;;;;;;;;;;;;;20.08;68.00;101230.88;4940561;29;20370;-35
2022/06/05 11:48:44;;;;;;;;;;;;;;;20.03;68.87;101233.50;4958190;29;19925;-34
2022/06/05 11:51:10;;;;;;;;;;;;;;;19.99;69.97;101231.50;4940784;29;19915;-35
2022/06/05 11:53:55;;;;;;;;;;;;;;;20.03;68.99;101230.75;4940317;29;19915;-36
2022/06/05 11:56:39;;;;;;;;;;;;;;;19.91;69.15;101225.28;4940709;29;19915;-34
2022/06/05 11:59:25;;;;;;;;;;;;;;;19.86;70.28;101221.59;4957806;29;19914;-34
2022/06/05 12:01:53;;;;;;;;;;;;;;;19.76;70.46;101222.16;4940860;29;20310;-34
2022/06/05 12:04:37;;;;;;;;;;;;;;;19.73;70.75;101233.56;4957951;29;19914;-33
2022/06/05 12:07:06;;;;;;;;;;;;;;;19.73;70.82;101222.66;4957417;29;19980;-33
2022/06/05 12:09:32;;;;;;;;;;;;;;;19.71;70.18;101225.59;4957392;29;19925;-33
2022/06/05 12:12:08;;;;;;;;;;;;;;;19.56;71.15;101216.13;4942831;29;19914;-34
2022/06/05 12:14:35;;;;;;;;;;;;;;;19.43;72.27;101215.28;4944462;29;19914;-35
2022/06/05 12:17:20;;;;;;;;;;;;;;;19.34;73.18;101215.81;4943847;29;19969;-34
2022/06/05 12:19:45;;;;;;;;;;;;;;;19.25;74.19;101205.25;4943832;29;19915;-34
2022/06/05 12:22:16;;;;;;;;;;;;;;;19.17;74.66;101204.69;4960823;29;19915;-36
2022/06/05 12:24:46;;;;;;;;;;;;;;;19.14;74.72;101197.84;4944066;29;20309;-34
2022/06/05 12:27:12;;;;;;;;;;;;;;;19.11;74.69;101202.91;4943818;29;20009;-35
2022/06/05 12:29:49;;;;;;;;;;;;;;;19.07;75.67;101202.53;4962118;29;20356;-33
2022/06/05 12:32:21;;;;;;;;;;;;;;;19.03;77.06;101202.16;4961721;29;19961;-35
2022/06/05 12:34:54;;;;;;;;;;;;;;;18.94;77.93;101199.97;4944709;29;20006;-34
2022/06/05 12:37:27;;;;;;;;;;;;;;;18.93;78.56;101195.56;4961610;28;19918;-33
2022/06/05 12:39:52;;;;;;;;;;;;;;;18.86;78.78;101191.03;4961757;29;19957;-34
2022/06/05 12:42:21;;;;;;;;;;;;;;;18.85;79.57;101188.53;4944075;29;19925;-34
2022/06/05 12:44:47;;;;;;;;;;;;;;;18.81;80.18;101188.16;4961417;29;19933;-34
2022/06/05 12:47:18;;;;;;;;;;;;;;;18.79;79.65;101189.44;4943683;29;19914;-34
2022/06/05 12:49:44;;;;;;;;;;;;;;;18.76;79.19;101195.38;4961753;29;19914;-38
2022/06/05 12:52:24;;;;;;;;;;;;;;;18.73;79.97;101201.25;4961317;29;19918;-35
2022/06/05 12:54:55;;;;;;;;;;;;;;;18.76;81.41;101198.91;4961297;29;19918;-36
2022/06/05 12:57:39;;;;;;;;;;;;;;;18.70;81.49;101201.72;4960314;29;19918;-37
2022/06/05 13:00:17;;;;;;;;;;;;;;;18.75;82.28;101207.34;4942897;29;20418;-37